Time;durP1;ratioP1;P1;durP2;ratioP2;P2;SDS_P1;SDS_P2;PMS_P1;PMS_P2;Temp;Humidity;BMP_temperature;BMP_pressure;BME280_temperature;BME280_humidity;BME280_pressure;Samples;Min_cycle;Max_cycle;Signal;HPM_P1;HPM_P2
2021/10/30 00:00:06;;;;;;;55.88;27.90;;;5.90;99.90;;;4.30;100.00;100808.88;4926232;28;20073;-83
2021/10/30 00:02:31;;;;;;;60.20;26.90;;;5.90;99.90;;;4.25;100.00;100798.53;4921984;28;20059;-83
2021/10/30 00:05:02;;;;;;;54.38;26.83;;;5.80;99.90;;;4.13;100.00;100782.28;4949865;28;20434;-83
2021/10/30 00:07:31;;;;;;;53.67;25.38;;;5.70;99.90;;;4.05;100.00;100782.41;4941961;28;20085;-83
2021/10/30 00:09:57;;;;;;;47.40;25.27;;;5.70;99.90;;;4.08;100.00;100788.44;4951388;28;20074;-83
2021/10/30 00:12:23;;;;;;;53.75;25.58;;;5.70;99.90;;;4.16;100.00;100816.94;4907912;28;20072;-83
2021/10/30 00:14:59;;;;;;;56.55;27.33;;;5.70;99.90;;;4.17;100.00;100818.69;4944049;28;20074;-83
2021/10/30 00:17:25;;;;;;;60.17;26.15;;;5.80;99.90;;;4.27;100.00;100833.22;4942475;28;20578;-82
2021/10/30 00:19:51;;;;;;;52.67;26.02;;;5.80;99.90;;;4.25;100.00;100826.34;4956113;28;20066;-83
2021/10/30 00:22:29;;;;;;;54.90;27.08;;;5.80;99.90;;;4.22;100.00;100816.84;4957167;28;20087;-83
2021/10/30 00:24:56;;;;;;;56.53;25.67;;;5.80;99.90;;;4.21;100.00;100809.91;4950636;28;20568;-83
2021/10/30 00:27:31;;;;;;;56.45;25.80;;;;;;;4.15;100.00;100803.94;4921355;28;20075;-83
2021/10/30 00:29:57;;;;;;;49.70;24.20;;;5.70;99.90;;;4.10;100.00;100797.09;4958620;28;20981;-83
2021/10/30 00:32:23;;;;;;;58.40;26.10;;;5.80;99.90;;;4.11;100.00;100809.22;4936777;28;21141;-83
2021/10/30 00:35:16;;;;;;;54.50;24.73;;;;;;;4.10;100.00;100811.84;4942629;28;20057;-83
2021/10/30 00:37:42;;;;;;;57.03;25.75;;;5.60;99.90;;;3.98;100.00;100805.13;4924749;28;20089;-84
2021/10/30 00:40:11;;;;;;;59.25;25.80;;;5.60;99.90;;;4.04;100.00;100814.56;4936296;28;20536;-83
2021/10/30 00:42:45;;;;;;;53.22;26.00;;;5.70;99.90;;;4.01;100.00;100817.22;4901017;28;20157;-83
2021/10/30 00:45:11;;;;;;;57.58;26.77;;;5.60;99.90;;;3.96;100.00;100816.47;4948774;28;20068;-83
2021/10/30 00:47:37;;;;;;;51.25;25.90;;;5.60;99.90;;;3.99;100.00;100812.03;4956828;28;20100;-83
2021/10/30 00:50:11;;;;;;;61.75;27.45;;;5.60;99.90;;;3.97;100.00;100815.56;4896796;28;20143;-82
2021/10/30 00:52:39;;;;;;;61.50;27.63;;;5.60;99.90;;;3.85;100.00;100807.09;4886996;28;20602;-83
2021/10/30 00:55:16;;;;;;;56.08;26.55;;;5.50;99.90;;;3.84;100.00;100809.72;4954721;28;20649;-83
2021/10/30 00:57:43;;;;;;;;;;;5.60;99.90;;;4.13;100.00;100845.69;4951682;28;20074;-83
2021/10/30 01:00:15;;;;;;;46.42;24.40;;;4.30;99.90;;;4.18;100.00;100843.00;4951837;28;20408;-83
2021/10/30 01:02:41;;;;;;;53.78;26.60;;;5.80;99.90;;;4.27;100.00;100841.06;4946299;28;20090;-83
2021/10/30 01:05:08;;;;;;;57.53;26.65;;;5.90;99.90;;;4.30;100.00;100838.41;4930723;28;20107;-83
2021/10/30 01:07:35;;;;;;;59.10;27.58;;;5.90;99.90;;;4.34;100.00;100831.38;4947076;28;20071;-83
2021/10/30 01:10:13;;;;;;;62.67;28.25;;;5.20;99.90;;;4.32;100.00;100822.75;4913653;28;20062;-83
2021/10/30 01:12:39;;;;;;;56.03;26.90;;;5.90;99.90;;;4.32;100.00;100812.31;4954427;28;20124;-83
2021/10/30 01:15:16;;;;;;;58.33;26.38;;;5.90;99.90;;;4.31;100.00;100816.66;4984504;28;20050;-83
2021/10/30 01:17:42;;;;;;;56.97;26.23;;;5.90;99.90;;;4.29;100.00;100812.38;4947895;28;20088;-83
2021/10/30 01:20:33;;;;;;;55.63;26.00;;;5.80;99.90;;;4.27;100.00;100808.94;4922823;28;20131;-84
2021/10/30 01:23:03;;;;;;;55.45;25.17;;;5.80;99.90;;;4.20;100.00;100808.19;4914159;28;20080;-83
2021/10/30 01:25:39;;;;;;;52.85;24.50;;;5.70;99.90;;;4.08;100.00;100793.66;4940323;28;20071;-83
2021/10/30 01:28:05;;;;;;;53.17;24.65;;;5.70;99.90;;;4.04;100.00;100793.72;4926083;28;20102;-83
2021/10/30 01:30:31;;;;;;;59.88;26.10;;;5.60;99.90;;;4.03;100.00;100794.63;4954072;28;20097;-83
2021/10/30 01:33:12;;;;;;;49.85;25.25;;;5.60;99.90;;;3.93;100.00;100799.16;4949410;28;20570;-83
2021/10/30 01:36:18;;;;;;;56.28;25.63;;;5.50;99.90;;;3.89;100.00;100800.94;5010237;28;20071;-83
2021/10/30 01:38:44;;;;;;;53.30;25.02;;;5.60;99.90;;;4.11;100.00;100834.44;4927472;28;20090;-84
2021/10/30 01:41:10;;;;;;;60.70;25.52;;;5.70;99.90;;;4.09;100.00;100831.84;4918830;28;20071;-83
2021/10/30 01:43:36;;;;;;;64.85;28.67;;;5.80;99.90;;;4.21;100.00;100843.81;4939465;28;20061;-84
2021/10/30 01:46:08;;;;;;;56.25;26.63;;;5.80;99.90;;;4.21;100.00;100840.31;4897106;28;20094;-83
2021/10/30 01:48:38;;;;;;;60.65;27.60;;;5.80;99.90;;;4.16;100.00;100827.38;4919783;28;20131;-84
2021/10/30 01:51:13;;;;;;;53.22;26.75;;;5.80;99.90;;;4.11;100.00;100811.81;4917568;28;20521;-83
2021/10/30 01:53:41;;;;;;;64.23;27.27;;;5.70;99.90;;;4.10;100.00;100807.50;4891482;28;20068;-83
2021/10/30 01:56:09;;;;;;;54.28;26.20;;;5.70;99.90;;;4.18;100.00;100822.13;4920528;28;20197;-83
2021/10/30 01:58:38;;;;;;;64.43;27.40;;;5.90;99.90;;;4.27;100.00;100835.84;4951947;28;20478;-83
2021/10/30 02:01:08;;;;;;;68.38;26.42;;;5.90;99.90;;;4.39;100.00;100841.75;4958909;28;20074;-84
2021/10/30 02:03:35;;;;;;;56.72;26.75;;;5.90;99.90;;;4.34;100.00;100828.75;4927259;28;20093;-84
2021/10/30 02:06:06;;;;;;;55.15;26.30;;;6.00;99.90;;;4.28;100.00;100814.13;4951401;28;20064;-83
2021/10/30 02:08:36;;;;;;;56.33;26.45;;;;;;;4.29;100.00;100817.56;4902298;28;20065;-84
2021/10/30 02:11:04;;;;;;;56.05;24.90;;;5.90;99.90;;;4.27;100.00;100815.00;4942914;28;20121;-83
2021/10/30 02:13:38;;;;;;;55.55;26.20;;;6.00;99.90;;;4.30;100.00;100814.94;4912732;28;20540;-84
2021/10/30 02:16:05;;;;;;;54.67;25.85;;;6.00;99.90;;;4.34;100.00;100818.34;4954073;28;20068;-83
2021/10/30 02:18:31;;;;;;;57.35;26.38;;;6.00;99.90;;;4.40;100.00;100825.19;4907561;28;20166;-83
2021/10/30 02:21:06;;;;;;;60.50;27.88;;;6.00;99.90;;;4.42;100.00;100824.25;4902016;28;20156;-83
2021/10/30 02:23:32;;;;;;;51.75;25.67;;;6.00;99.90;;;4.48;100.00;100834.56;4944727;28;21025;-83
2021/10/30 02:25:58;;;;;;;55.97;26.58;;;6.10;99.90;;;4.52;100.00;100819.75;4912573;28;20074;-83
2021/10/30 02:28:24;;;;;;;56.05;27.33;;;6.10;99.90;;;4.56;100.00;100818.78;4961136;28;20114;-83
2021/10/30 02:31:01;;;;;;;61.88;26.77;;;6.10;99.90;;;4.65;100.00;100826.41;4917476;28;20082;-83
2021/10/30 02:33:27;;;;;;;51.13;25.50;;;6.20;99.90;;;4.63;100.00;100817.78;4939418;28;20063;-83
2021/10/30 02:35:53;;;;;;;54.92;25.35;;;6.30;99.90;;;4.69;100.00;100822.84;4925799;28;20073;-83
2021/10/30 02:38:28;;;;;;;51.50;25.33;;;6.20;99.90;;;4.67;100.00;100814.22;4937551;28;20106;-83
2021/10/30 02:40:54;;;;;;;52.00;25.67;;;6.20;99.90;;;4.62;100.00;100802.13;4937547;28;20552;-83
2021/10/30 02:43:20;;;;;;;60.13;25.83;;;6.20;99.90;;;4.59;100.00;100802.22;4916472;28;20086;-83
2021/10/30 02:45:56;;;;;;;55.67;25.90;;;;;;;4.68;100.00;100815.91;4950563;28;20076;-83
2021/10/30 02:48:22;;;;;;;;;;;6.30;99.90;;;4.67;100.00;100814.22;4947831;28;20150;-83
2021/10/30 02:50:48;;;;;;;59.57;25.13;;;6.20;99.90;;;4.66;100.00;100811.63;4920103;28;20371;-83
2021/10/30 02:53:39;;;;;;;61.35;27.33;;;6.20;99.90;;;4.71;100.00;100810.66;4944367;28;20066;-84
2021/10/30 02:56:05;;;;;;;49.15;24.98;;;6.30;99.90;;;4.78;100.00;100820.97;4954190;28;20553;-83
2021/10/30 02:58:31;;;;;;;52.63;26.15;;;6.30;99.90;;;4.79;100.00;100783.53;4913325;28;20549;-83
2021/10/30 03:01:09;;;;;;;59.03;26.65;;;6.30;99.90;;;4.74;100.00;100804.50;4931259;28;20057;-83
2021/10/30 03:03:35;;;;;;;50.15;25.88;;;6.30;99.90;;;4.72;100.00;100812.34;4981661;28;20080;-83
2021/10/30 03:06:10;;;;;;;51.53;26.00;;;6.30;99.90;;;4.65;100.00;100805.56;4961877;28;20611;-83
2021/10/30 03:08:36;;;;;;;55.88;25.98;;;6.20;99.90;;;4.58;100.00;100805.69;4942510;28;20160;-83
2021/10/30 03:11:03;;;;;;;53.13;24.83;;;6.20;99.90;;;4.55;100.00;100806.63;4920291;28;20626;-83
2021/10/30 03:13:29;;;;;;;54.15;24.70;;;6.10;99.90;;;4.48;100.00;100802.44;4943336;28;20068;-83
2021/10/30 03:16:02;;;;;;;55.20;25.00;;;;;;;4.45;100.00;100813.78;4940042;28;20204;-83
2021/10/30 03:18:28;;;;;;;50.72;25.65;;;6.00;99.90;;;4.39;100.00;100818.28;4932419;28;20420;-83
2021/10/30 03:20:54;;;;;;;54.58;25.15;;;6.00;99.90;;;4.39;100.00;100826.09;4913549;28;20104;-83
2021/10/30 03:23:20;;;;;;;50.90;26.20;;;6.00;99.90;;;4.39;100.00;100828.69;4920544;28;20191;-83
2021/10/30 03:25:53;;;;;;;53.55;25.45;;;6.00;99.90;;;4.36;100.00;100821.78;4895852;28;20069;-83
2021/10/30 03:28:19;;;;;;;46.90;25.65;;;6.00;99.90;;;4.32;100.00;100817.53;4925616;28;20194;-83
2021/10/30 03:30:45;;;;;;;52.85;25.70;;;5.90;99.90;;;4.30;100.00;100825.38;4947702;28;20869;-83
2021/10/30 03:33:11;;;;;;;57.75;24.08;;;5.90;99.90;;;4.32;100.00;100825.34;4948630;28;20081;-83
2021/10/30 03:35:43;;;;;;;49.65;24.63;;;6.00;99.90;;;4.46;100.00;100843.31;4937126;28;20066;-83
2021/10/30 03:38:12;;;;;;;52.97;24.90;;;6.00;99.90;;;4.41;100.00;100842.56;4934440;28;20904;-83
2021/10/30 03:40:38;;;;;;;57.95;26.15;;;6.10;99.90;;;4.56;100.00;100855.31;4921057;28;20092;-84
2021/10/30 03:43:04;;;;;;;50.17;25.92;;;6.10;99.90;;;4.72;100.00;100869.75;4906756;28;20073;-83
2021/10/30 03:45:40;;;;;;;56.08;26.92;;;6.10;99.90;;;4.63;100.00;100845.59;4904606;28;20133;-83
2021/10/30 03:48:20;;;;;;;59.67;26.77;;;6.10;99.90;;;4.57;100.00;100827.47;4918767;28;20598;-83
2021/10/30 03:50:48;;;;;;;51.60;24.08;;;6.10;99.90;;;4.52;100.00;100825.81;4955049;28;20067;-83
2021/10/30 03:53:22;;;;;;;52.00;24.70;;;6.10;99.90;;;4.52;100.00;100841.44;4946106;28;20168;-83
2021/10/30 03:55:49;;;;;;;55.00;25.42;;;6.10;99.90;;;4.50;100.00;100845.84;4943727;28;20405;-83
2021/10/30 03:58:16;;;;;;;52.03;25.48;;;6.10;99.90;;;4.45;100.00;100823.34;4946171;28;20068;-83
2021/10/30 04:00:49;;;;;;;48.80;24.20;;;6.10;99.90;;;4.49;100.00;100882.38;4936837;28;20070;-83
2021/10/30 04:03:17;;;;;;;57.40;26.13;;;6.10;99.90;;;4.59;100.00;100870.03;4961625;28;20083;-83
2021/10/30 04:05:43;;;;;;;49.53;23.98;;;6.10;99.90;;;4.58;100.00;100868.28;4945309;28;20414;-83
2021/10/30 04:08:19;;;;;;;55.20;25.50;;;6.20;99.90;;;4.65;100.00;100872.50;4932136;28;20153;-83
2021/10/30 04:10:46;;;;;;;;;;;6.20;99.90;;;4.58;100.00;100863.06;4979650;28;20116;-83
2021/10/30 04:13:12;;;;;;;48.95;24.08;;;6.10;99.90;;;4.48;100.00;100847.63;4933267;28;20407;-83
2021/10/30 04:16:01;;;;;;;49.55;24.95;;;6.10;99.90;;;4.47;100.00;100845.03;4945176;28;20067;-83
2021/10/30 04:18:27;;;;;;;54.60;26.40;;;6.00;99.90;;;4.46;100.00;100845.94;4971538;28;20072;-83
2021/10/30 04:20:53;;;;;;;52.00;24.52;;;;;;;4.38;100.00;100847.81;4989628;28;20061;-83
2021/10/30 04:23:20;;;;;;;51.38;24.90;;;;;;;4.49;100.00;100858.91;4947288;28;20079;-83
2021/10/30 04:25:54;;;;;;;49.08;24.38;;;6.00;99.90;;;4.50;100.00;100852.81;4944784;28;20558;-83
2021/10/30 04:28:21;;;;;;;52.72;25.67;;;6.00;99.90;;;4.47;100.00;100861.56;4943116;28;20070;-83
2021/10/30 04:30:48;;;;;;;56.55;25.42;;;6.00;99.90;;;4.49;100.00;100856.28;4928661;28;20213;-83
2021/10/30 04:33:24;;;;;;;48.03;24.60;;;6.10;99.90;;;4.48;100.00;100855.44;4968889;28;20439;-83
2021/10/30 04:35:50;;;;;;;53.13;24.90;;;6.10;99.90;;;4.58;100.00;100860.47;4958724;28;20562;-83
2021/10/30 04:38:16;;;;;;;51.42;25.05;;;6.10;99.90;;;4.58;100.00;100855.25;4931437;28;20080;-84
2021/10/30 04:40:51;;;;;;;54.30;25.50;;;6.20;99.90;;;4.64;100.00;100850.75;4952341;28;20079;-83
2021/10/30 04:43:17;;;;;;;59.35;26.95;;;6.20;99.90;;;4.61;100.00;100847.38;4960610;28;20145;-83
2021/10/30 04:45:43;;;;;;;51.70;24.77;;;6.20;99.90;;;4.57;100.00;100843.97;4932486;28;20154;-84
2021/10/30 04:48:20;;;;;;;60.40;24.98;;;6.20;99.90;;;4.62;100.00;100839.53;4917772;28;20109;-83
2021/10/30 04:50:46;;;;;;;49.40;24.88;;;6.20;99.90;;;4.58;100.00;100830.06;4947518;28;20586;-83
2021/10/30 04:53:13;;;;;;;48.92;24.88;;;6.20;99.90;;;4.64;100.00;100839.47;4937504;28;21109;-83
2021/10/30 04:55:48;;;;;;;55.30;26.30;;;6.10;99.90;;;4.54;100.00;100833.59;4901943;28;20160;-83
2021/10/30 04:58:14;;;;;;;47.50;24.20;;;6.10;99.90;;;4.54;100.00;100827.53;4929344;28;20080;-83
2021/10/30 05:00:40;;;;;;;46.20;22.98;;;;;;;4.44;100.00;100817.28;4902178;28;20250;-84
2021/10/30 05:03:15;;;;;;;50.83;25.10;;;6.00;99.90;;;4.41;100.00;100816.50;4941579;28;20067;-84
2021/10/30 05:05:40;;;;;;;46.78;23.98;;;4.50;99.90;;;4.49;100.00;100833.72;4962296;28;20105;-84
2021/10/30 05:08:06;;;;;;;48.42;23.85;;;6.10;99.90;;;4.54;100.00;100830.16;4936872;28;20188;-83
2021/10/30 05:10:32;;;;;;;52.10;23.92;;;6.10;99.90;;;4.50;100.00;100831.94;4937214;28;20167;-83
2021/10/30 05:13:07;;;;;;;48.88;24.42;;;6.10;99.90;;;4.56;100.00;100837.03;4933559;28;20065;-83
2021/10/30 05:15:33;;;;;;;48.25;24.38;;;6.10;99.90;;;4.51;100.00;100834.53;4955866;28;20064;-83
2021/10/30 05:18:00;;;;;;;49.65;25.15;;;6.10;99.90;;;4.46;100.00;100820.72;4928971;28;20116;-83
2021/10/30 05:20:29;;;;;;;55.67;25.17;;;6.00;99.90;;;4.40;100.00;100804.34;4928509;28;20069;-83
2021/10/30 05:23:04;;;;;;;57.65;25.98;;;;;;;4.44;100.00;100803.38;4984359;28;20064;-83
2021/10/30 05:25:39;;;;;;;49.78;24.63;;;;;;;4.43;100.00;100809.50;4951461;28;20098;-83
2021/10/30 05:28:05;;;;;;;52.67;24.45;;;6.00;99.90;;;4.51;100.00;100813.69;4966574;28;20072;-83
2021/10/30 05:30:31;;;;;;;55.45;25.70;;;6.00;99.90;;;4.53;100.00;100811.00;4947496;28;20596;-84
2021/10/30 05:33:06;;;;;;;48.47;24.65;;;6.00;99.90;;;4.46;100.00;100801.59;4925148;28;20065;-84
2021/10/30 05:35:32;;;;;;;58.30;27.05;;;6.00;99.90;;;4.42;100.00;100798.19;4923128;28;20052;-83
2021/10/30 05:37:58;;;;;;;70.88;31.23;;;6.00;99.90;;;4.41;100.00;100799.09;4916508;28;20087;-83
2021/10/30 05:40:24;;;;;;;53.45;26.13;;;5.90;99.90;;;4.31;100.00;100790.59;4898374;28;20558;-83
2021/10/30 05:43:00;;;;;;;51.80;24.08;;;5.90;99.90;;;4.31;100.00;100790.59;4945290;28;20073;-83
2021/10/30 05:45:26;;;;;;;52.97;24.58;;;5.90;99.90;;;4.28;100.00;100782.84;4936794;28;20066;-83
2021/10/30 05:47:52;;;;;;;48.22;23.65;;;5.70;99.90;;;4.14;100.00;100774.41;4934441;28;20113;-82
2021/10/30 05:50:27;;;;;;;52.25;24.25;;;5.70;99.90;;;4.09;100.00;100776.25;4923392;28;20055;-83
2021/10/30 05:52:53;;;;;;;55.28;23.65;;;;;;;4.03;100.00;100772.00;4920923;28;20117;-84
2021/10/30 05:55:19;;;;;;;48.83;23.75;;;5.60;99.90;;;3.93;100.00;100767.00;4947983;28;20068;-84
2021/10/30 05:57:54;;;;;;;47.25;24.00;;;5.50;99.90;;;3.83;100.00;100766.34;4923807;28;20085;-84
2021/10/30 06:00:23;;;;;;;58.90;25.30;;;5.50;99.90;;;3.92;100.00;100780.94;4929134;28;20619;-84
2021/10/30 06:02:49;;;;;;;52.72;25.00;;;5.50;99.90;;;3.87;100.00;100771.44;4938304;28;20087;-83
2021/10/30 06:05:18;;;;;;;51.70;25.80;;;;;;;3.88;100.00;100783.56;4949035;28;20052;-84
2021/10/30 06:07:47;;;;;;;48.97;24.35;;;;;;;3.95;100.00;100799.09;4914698;28;20079;-84
2021/10/30 06:10:13;;;;;;;52.10;25.02;;;5.50;99.90;;;3.99;100.00;100803.38;4960390;28;20064;-83
2021/10/30 06:12:40;;;;;;;63.17;27.52;;;5.50;99.90;;;4.00;100.00;100760.81;4905731;28;20513;-83
2021/10/30 06:15:15;;;;;;;52.17;24.45;;;5.60;99.90;;;4.02;100.00;100798.97;4936478;28;20152;-83
2021/10/30 06:17:41;;;;;;;47.75;24.05;;;5.70;99.90;;;4.15;100.00;100815.25;4939609;28;20069;-84
2021/10/30 06:20:08;;;;;;;49.25;25.13;;;6.90;99.90;;;4.16;100.00;100810.88;4915526;28;20477;-83
2021/10/30 06:22:42;;;;;;;65.13;28.00;;;5.70;99.90;;;4.18;100.00;100804.75;4928751;28;20074;-84
2021/10/30 06:25:14;;;;;;;55.50;25.08;;;5.70;99.90;;;4.20;100.00;100797.75;4915120;28;20058;-84
2021/10/30 06:27:49;;;;;;;57.97;26.85;;;5.80;99.90;;;4.29;100.00;100813.22;4903961;28;20063;-83
2021/10/30 06:30:15;;;;;;;54.60;25.73;;;5.80;99.90;;;4.30;100.00;100806.28;4923000;28;20544;-83
2021/10/30 06:32:52;;;;;;;52.17;24.13;;;5.80;99.90;;;4.25;100.00;100790.69;4924740;28;20064;-84
2021/10/30 06:35:18;;;;;;;51.13;24.73;;;;;;;4.28;100.00;100798.47;4908863;28;20067;-83
2021/10/30 06:37:44;;;;;;;49.45;24.45;;;5.90;99.90;;;4.34;100.00;100801.84;4984096;28;20090;-84
2021/10/30 06:40:21;;;;;;;55.80;25.27;;;5.90;99.90;;;4.35;100.00;100806.19;4919553;28;20482;-83
2021/10/30 06:42:47;;;;;;;53.53;26.08;;;;;;;4.31;100.00;100806.22;4965953;28;22780;-84
2021/10/30 06:45:22;;;;;;;50.55;24.10;;;;;;;4.27;100.00;100798.50;4924537;28;20482;-84
2021/10/30 06:47:48;;;;;;;54.90;26.17;;;5.80;99.90;;;4.28;100.00;100795.88;4917108;28;20143;-84
2021/10/30 06:50:21;;;;;;;49.08;24.60;;;5.90;99.90;;;4.35;100.00;100804.44;4979680;28;20068;-84
2021/10/30 06:52:54;;;;;;;49.35;23.42;;;5.90;99.90;;;4.40;100.00;100810.41;4940929;28;20066;-83
2021/10/30 06:55:21;;;;;;;57.22;24.52;;;5.90;99.90;;;4.44;100.00;100814.66;4938156;28;20093;-83
2021/10/30 06:57:57;;;;;;;55.30;24.98;;;5.90;99.90;;;4.45;100.00;100819.00;4931253;28;20079;-84
2021/10/30 07:00:23;;;;;;;50.67;25.27;;;;;;;4.56;100.00;100833.56;4909060;28;20072;-84
2021/10/30 07:02:58;;;;;;;53.20;25.15;;;6.30;99.90;;;5.30;100.00;100901.59;4952478;28;20084;-83
2021/10/30 07:05:26;;;;;;;55.25;27.30;;;;;;;6.34;100.00;100973.22;4957106;28;20169;-84
2021/10/30 07:07:52;;;;;;;57.72;26.42;;;7.60;99.90;;;6.80;100.00;100964.19;4953123;28;20064;-84
2021/10/30 07:10:26;;;;;;;44.42;23.33;;;7.90;99.90;;;6.58;99.51;100920.25;4928857;28;20069;-84
2021/10/30 07:12:52;;;;;;;41.72;21.33;;;7.70;99.90;;;6.09;100.00;100881.47;4940658;28;20091;-83
2021/10/30 07:15:18;;;;;;;42.58;21.58;;;;;;;5.88;100.00;100869.78;4938250;28;20426;-84
2021/10/30 07:17:44;;;;;;;44.90;21.55;;;7.30;99.90;;;6.06;100.00;100905.94;4948121;28;20084;-84
2021/10/30 07:20:16;;;;;;;50.50;25.40;;;7.60;99.90;;;7.26;100.00;101020.53;4915771;28;20082;-83
2021/10/30 07:23:04;;;;;;;48.40;24.45;;;8.60;99.90;;;9.29;90.25;101139.25;4946943;28;20067;-83
2021/10/30 07:25:30;;;;;;;46.25;23.27;;;10.00;99.90;;;10.84;80.43;101213.34;4914637;28;20121;-81
2021/10/30 07:28:08;;;;;;;39.45;20.38;;;11.20;99.90;;;11.92;74.73;101187.72;4943442;28;20149;-84
2021/10/30 07:30:45;;;;;;;34.72;18.52;;;12.20;99.90;;;12.81;69.32;101268.13;4948102;28;20075;-83
2021/10/30 07:34:14;;;;;;;32.70;17.10;;;12.60;99.90;;;11.87;69.77;101156.22;4936337;28;20533;-83
2021/10/30 07:36:18;;;;;;;30.95;17.58;;;12.00;99.90;;;10.15;75.43;101033.50;4926733;28;20120;-83
2021/10/30 07:38:44;;;;;;;32.55;18.17;;;10.80;99.90;;;8.83;81.92;100952.59;4915218;28;20079;-83
2021/10/30 07:41:10;;;;;;;;;;;9.70;99.90;;;7.98;87.18;100931.84;4976145;28;20535;-83
2021/10/30 07:43:53;;;;;;;36.80;18.98;;;;;;;7.56;90.96;100920.97;4922503;28;19944;-83
2021/10/30 07:46:28;;;;;;;40.08;20.27;;;8.70;99.90;;;7.32;94.05;100927.78;4922734;28;20255;-83
2021/10/30 07:48:54;;;;;;;46.20;23.58;;;8.70;99.90;;;7.43;94.58;100949.31;4944392;28;20461;-82
2021/10/30 07:51:31;;;;;;;44.17;21.25;;;8.50;99.90;;;7.10;96.31;100922.34;4926060;28;20461;-82
2021/10/30 07:53:57;;;;;;;42.80;22.17;;;8.30;99.90;;;6.90;98.03;100904.59;4926819;28;20067;-83
2021/10/30 07:56:23;;;;;;;50.75;22.63;;;8.30;99.90;;;6.82;99.71;100910.03;4944138;28;20207;-82
2021/10/30 07:59:12;;;;;;;;;;;8.20;99.90;;;6.73;100.00;100919.00;4963199;28;20064;-83
2021/10/30 08:01:39;;;;;;;46.17;22.70;;;;;;;7.05;100.00;100940.81;4953160;28;19952;-83
2021/10/30 08:04:05;;;;;;;46.17;22.35;;;8.40;99.90;;;7.18;99.73;100930.84;4982045;28;20185;-83
2021/10/30 08:06:31;;;;;;;;;;;8.40;99.90;;;6.97;99.61;100908.75;4917154;28;20169;-83
2021/10/30 08:09:08;;;;;;;45.70;22.52;;;8.30;99.90;;;6.88;100.00;100898.53;4932091;28;19951;-83
2021/10/30 08:11:34;;;;;;;50.08;23.73;;;8.30;99.90;;;6.89;100.00;100915.94;4937934;28;20130;-83
2021/10/30 08:14:00;;;;;;;;;;;8.30;99.90;;;6.91;100.00;100906.28;4893360;28;20067;-83
2021/10/30 08:16:33;;;;;;;45.58;21.77;;;8.30;99.90;;;6.89;100.00;100895.88;4921618;28;20009;-83
2021/10/30 08:19:02;;;;;;;47.30;23.00;;;8.20;99.90;;;6.91;100.00;100893.19;4929447;28;20176;-84
2021/10/30 08:21:28;;;;;;;48.55;23.83;;;8.30;99.90;;;6.86;100.00;100893.34;4938661;28;20526;-83
2021/10/30 08:24:04;;;;;;;;;;;8.30;99.90;;;6.92;100.00;100894.94;4920845;28;20202;-83
2021/10/30 08:26:30;;;;;;;44.25;22.75;;;8.30;99.90;;;6.95;100.00;100886.97;4919819;28;19956;-83
2021/10/30 08:28:58;;;;;;;47.40;23.13;;;8.40;99.90;;;7.04;100.00;100893.72;4923182;28;20056;-84
2021/10/30 08:31:30;;;;;;;48.65;24.15;;;;;;;7.19;100.00;100906.34;4906244;28;20074;-83
2021/10/30 08:33:57;;;;;;;46.97;23.95;;;8.60;99.90;;;7.27;100.00;100896.50;4937228;28;20439;-83
2021/10/30 08:36:24;;;;;;;46.47;24.15;;;8.70;99.90;;;7.31;100.00;100894.66;4883221;28;20068;-83
2021/10/30 08:38:55;;;;;;;46.58;24.98;;;8.80;99.90;;;7.50;100.00;100903.66;4928121;28;20596;-83
2021/10/30 08:41:26;;;;;;;48.47;24.10;;;8.90;99.90;;;7.57;100.00;100907.81;4905176;28;20074;-84
2021/10/30 08:43:52;;;;;;;46.22;24.20;;;9.00;99.90;;;7.69;99.59;100916.19;4916897;28;20057;-84
2021/10/30 08:46:29;;;;;;;42.83;23.08;;;9.10;99.90;;;7.93;99.60;100939.00;4939969;28;20045;-84
2021/10/30 08:48:55;;;;;;;49.78;23.40;;;9.50;99.90;;;8.52;98.73;100981.72;4923721;28;20080;-84
2021/10/30 08:51:29;;;;;;;46.78;23.42;;;;;;;9.81;91.64;101056.75;4948415;28;20044;-83
2021/10/30 08:53:56;;;;;;;48.10;22.35;;;10.90;99.90;;;11.12;84.55;101130.50;4951834;28;20115;-83
2021/10/30 08:56:24;;;;;;;39.30;19.98;;;;;;;12.60;75.78;101190.75;4912935;28;20647;-83
2021/10/30 08:59:02;;;;;;;36.05;19.00;;;;;;;13.99;69.98;101258.75;4931573;28;20056;-83
2021/10/30 09:01:29;;;;;;;34.75;19.10;;;13.50;99.90;;;14.43;68.32;101275.91;4960164;28;20053;-83
2021/10/30 09:04:25;;;;;;;38.70;20.50;;;14.20;99.90;;;14.65;64.89;101243.81;4911374;28;20283;-84
2021/10/30 09:07:16;;;;;;;39.50;20.57;;;14.50;99.90;;;14.84;63.36;101203.84;4912415;28;20037;-84
2021/10/30 09:09:57;;;;;;;34.88;19.42;;;14.50;99.90;;;14.96;63.03;101206.66;4916679;28;20390;-84
2021/10/30 09:12:32;;;;;;;33.10;19.42;;;14.60;99.90;;;15.44;62.64;101240.19;4919740;28;20037;-85
2021/10/30 09:14:59;;;;;;;34.13;19.67;;;14.80;99.90;;;15.46;62.22;101222.38;4929553;28;20124;-84
2021/10/30 09:17:27;;;;;;;35.70;21.30;;;14.80;99.90;;;15.06;62.39;101214.94;4907948;28;20144;-84
2021/10/30 09:19:59;;;;;;;42.83;19.83;;;14.70;99.90;;;14.92;64.30;101154.78;4934881;28;20089;-83
2021/10/30 09:22:27;;;;;;;35.72;19.90;;;14.50;99.90;;;14.22;63.94;101122.47;4915713;28;20081;-84
2021/10/30 09:25:04;;;;;;;35.63;20.27;;;14.60;99.90;;;15.14;65.06;101134.91;4929231;28;20036;-84
2021/10/30 09:28:01;;;;;;;38.80;20.77;;;14.60;99.90;;;14.64;65.03;101118.38;4941045;28;20513;-83
2021/10/30 09:30:59;;;;;;;37.80;20.35;;;14.30;99.90;;;14.06;66.83;101090.72;4924143;28;20044;-84
2021/10/30 09:34:01;;;;;;;32.60;20.35;;;14.10;99.90;;;13.47;67.76;101033.94;4930120;28;20047;-84
2021/10/30 09:36:40;;;;;;;34.13;19.27;;;13.90;99.90;;;13.17;71.11;101021.38;4947860;28;20378;-84
2021/10/30 09:39:20;;;;;;;34.80;19.45;;;13.80;99.90;;;12.75;73.62;100998.06;4937024;28;20082;-83
2021/10/30 09:41:52;;;;;;;36.30;20.92;;;13.70;99.90;;;12.12;75.09;100936.06;4938774;28;20049;-84
2021/10/30 09:44:23;;;;;;;37.83;21.45;;;13.40;99.90;;;11.78;77.84;100921.00;4936389;28;20042;-84
2021/10/30 09:46:58;;;;;;;41.00;23.90;;;13.10;99.90;;;11.38;78.87;100899.16;4886497;28;20077;-83
2021/10/30 09:49:47;;;;;;;40.03;22.70;;;;;;;11.17;80.46;100891.34;4938912;28;20071;-83
2021/10/30 09:52:20;;;;;;;40.85;22.33;;;12.40;99.90;;;10.89;80.76;100873.31;4907890;28;20093;-84
2021/10/30 09:55:02;;;;;;;40.15;20.92;;;12.20;99.90;;;10.55;81.14;100842.38;4918526;28;20045;-83
2021/10/30 09:57:38;;;;;;;39.28;22.15;;;11.90;99.90;;;10.79;83.40;100887.81;4986843;28;20124;-83
2021/10/30 10:00:08;;;;;;;41.72;21.80;;;;;;;10.88;83.31;100890.91;5001163;28;20071;-83
2021/10/30 10:02:45;;;;;;;43.95;22.02;;;12.10;99.90;;;10.99;84.14;100906.22;4958861;28;20509;-83
2021/10/30 10:05:22;;;;;;;40.92;21.80;;;12.10;99.90;;;10.89;83.08;100878.56;4914154;28;20074;-84
2021/10/30 10:07:49;;;;;;;43.72;22.50;;;12.10;99.90;;;10.95;83.88;100891.47;4937968;28;20034;-83
2021/10/30 10:10:16;;;;;;;38.85;21.13;;;12.10;99.90;;;10.92;84.18;100872.31;4896756;28;20064;-83
2021/10/30 10:13:10;;;;;;;38.70;21.55;;;12.00;99.90;;;10.73;84.35;100867.84;4928504;28;20097;-83
2021/10/30 10:15:46;;;;;;;43.72;23.10;;;11.90;99.90;;;10.67;85.79;100868.16;4941554;28;21930;-82
2021/10/30 10:18:13;;;;;;;41.00;22.23;;;11.90;99.90;;;10.67;86.32;100869.00;4902088;28;20500;-83
2021/10/30 10:20:40;;;;;;;43.80;23.83;;;12.00;99.90;;;10.51;86.16;100854.78;4887233;28;20131;-84
2021/10/30 10:23:11;;;;;;;46.90;24.00;;;12.00;99.90;;;10.59;86.33;100854.47;4916553;28;20034;-83
2021/10/30 10:25:55;;;;;;;44.13;23.00;;;12.00;99.90;;;10.84;86.58;100875.28;4928965;28;20065;-82
2021/10/30 10:28:41;;;;;;;43.05;23.83;;;12.00;99.90;;;10.76;86.00;100859.84;4907714;28;20221;-83